createdAt,value
2018-12-26T00:00:59.749Z,19.50
2018-12-26T00:03:42.582Z,17.37
2018-12-26T00:06:25.192Z,16.97
2018-12-26T00:09:07.834Z,17.93
2018-12-26T00:11:50.172Z,18.20
2018-12-26T00:14:33.403Z,19.90
2018-12-26T00:17:15.896Z,19.50
2018-12-26T00:19:58.989Z,19.17
2018-12-26T00:22:41.923Z,19.43
2018-12-26T00:25:25.553Z,19.73
2018-12-26T00:28:08.024Z,19.00
2018-12-26T00:30:52.133Z,17.57
2018-12-26T00:33:35.296Z,18.67
2018-12-26T00:36:17.968Z,20.03
2018-12-26T00:39:00.680Z,19.90
2018-12-26T00:41:45.836Z,18.60
2018-12-26T00:44:28.691Z,24.02
2018-12-26T00:47:11.222Z,20.30
2018-12-26T00:49:53.755Z,19.50
2018-12-26T00:52:36.627Z,19.60
2018-12-26T00:55:19.725Z,19.93
2018-12-26T00:58:02.672Z,19.40
2018-12-26T01:00:46.011Z,19.00
2018-12-26T01:03:27.269Z,21.03
2018-12-26T01:06:17.349Z,20.20
2018-12-26T01:09:01.173Z,20.20
2018-12-26T01:11:45.206Z,18.90
2018-12-26T01:14:28.578Z,19.87
2018-12-26T01:17:11.046Z,17.77
2018-12-26T01:19:53.650Z,18.80
2018-12-26T01:22:36.216Z,17.17
2018-12-26T01:25:18.928Z,19.53
2018-12-26T01:28:01.427Z,18.37
2018-12-26T01:30:44.268Z,19.03
2018-12-26T01:33:26.686Z,18.57
2018-12-26T01:36:09.321Z,17.73
2018-12-26T01:38:51.845Z,17.40
2018-12-26T01:41:34.470Z,16.67
2018-12-26T01:44:17.413Z,17.43
2018-12-26T01:47:00.582Z,17.83
2018-12-26T01:49:43.266Z,17.60
2018-12-26T01:52:25.834Z,17.83
2018-12-26T01:54:56.427Z,17.83
2018-12-26T01:57:46.305Z,16.67
2018-12-26T02:00:16.897Z,18.30
2018-12-26T02:03:06.830Z,17.67
2018-12-26T02:05:51.035Z,16.57
2018-12-26T02:08:21.981Z,18.23
2018-12-26T02:11:11.851Z,18.13
2018-12-26T02:13:54.635Z,18.13
2018-12-26T02:16:36.912Z,18.63
2018-12-26T02:19:19.899Z,18.70
2018-12-26T02:22:02.250Z,17.90
2018-12-26T02:24:45.020Z,17.80
2018-12-26T02:27:29.135Z,18.07
2018-12-26T02:30:11.692Z,16.63
2018-12-26T02:32:54.976Z,18.03
2018-12-26T02:35:37.374Z,17.07
2018-12-26T02:38:20.215Z,18.63
2018-12-26T02:41:02.639Z,19.60
2018-12-26T02:43:45.296Z,17.33
2018-12-26T02:46:28.607Z,18.03
2018-12-26T02:49:11.720Z,17.77
2018-12-26T02:51:54.671Z,18.93
2018-12-26T02:54:37.277Z,18.97
2018-12-26T02:57:20.162Z,18.30
2018-12-26T03:00:02.595Z,18.97
2018-12-26T03:02:45.371Z,18.70
2018-12-26T03:05:28.125Z,19.20
2018-12-26T03:08:10.924Z,20.17
2018-12-26T03:10:53.360Z,18.17
2018-12-26T03:13:35.701Z,18.73
2018-12-26T03:16:18.617Z,20.17
2018-12-26T03:19:01.567Z,18.83
2018-12-26T03:21:44.538Z,17.70
2018-12-26T03:24:26.856Z,18.20
2018-12-26T03:27:09.437Z,18.37
2018-12-26T03:29:52.376Z,18.23
2018-12-26T03:32:35.347Z,19.80
2018-12-26T03:35:18.084Z,19.53
2018-12-26T03:38:01.144Z,18.83
2018-12-26T03:40:43.740Z,20.40
2018-12-26T03:43:28.283Z,18.90
2018-12-26T03:46:12.399Z,19.63
2018-12-26T03:48:54.920Z,18.87
2018-12-26T03:51:37.226Z,18.60
2018-12-26T03:54:19.664Z,19.40
2018-12-26T03:57:06.199Z,18.63
2018-12-26T03:59:48.278Z,20.00
2018-12-26T04:02:30.739Z,17.97
2018-12-26T04:05:13.201Z,18.97
2018-12-26T04:07:56.196Z,19.73
2018-12-26T04:10:39.232Z,18.83
2018-12-26T04:13:21.712Z,20.33
2018-12-26T04:16:04.365Z,19.57
2018-12-26T04:18:47.375Z,20.37
2018-12-26T04:21:30.873Z,19.17
2018-12-26T04:24:13.789Z,20.07
2018-12-26T04:26:57.028Z,21.70
2018-12-26T04:29:39.461Z,19.27
2018-12-26T04:32:22.601Z,20.10
2018-12-26T04:35:05.254Z,20.47
2018-12-26T04:37:48.329Z,19.53
2018-12-26T04:40:30.857Z,19.77
2018-12-26T04:43:14.418Z,18.77
2018-12-26T04:45:56.359Z,18.60
2018-12-26T04:48:46.286Z,19.87
2018-12-26T04:51:29.224Z,18.50
2018-12-26T04:54:12.897Z,17.60
2018-12-26T04:56:55.303Z,18.23
2018-12-26T04:59:26.359Z,17.97
2018-12-26T05:02:37.498Z,18.50
2018-12-26T05:05:20.293Z,19.13
2018-12-26T05:08:03.068Z,19.13
2018-12-26T05:10:45.897Z,17.40
2018-12-26T05:13:28.603Z,18.40
2018-12-26T05:16:11.904Z,17.83
2018-12-26T05:18:43.097Z,18.43
2018-12-26T05:21:33.022Z,20.00
2018-12-26T05:24:15.408Z,19.00
2018-12-26T05:26:58.639Z,17.80
2018-12-26T05:29:41.281Z,18.63
2018-12-26T05:32:23.762Z,16.97
2018-12-26T05:35:06.749Z,17.60
2018-12-26T05:37:49.485Z,18.50
2018-12-26T05:40:32.289Z,18.00
2018-12-26T05:43:14.922Z,18.83
2018-12-26T05:45:58.315Z,18.07
2018-12-26T05:48:40.824Z,19.50
2018-12-26T05:51:23.734Z,19.17
2018-12-26T05:54:07.837Z,19.97
2018-12-26T05:56:51.275Z,21.47
2018-12-26T05:59:34.041Z,30.10
2018-12-26T06:02:16.347Z,23.97
2018-12-26T06:04:59.142Z,25.33
2018-12-26T06:07:42.466Z,19.77
2018-12-26T06:10:25.609Z,18.10
2018-12-26T06:13:07.928Z,19.17
2018-12-26T06:15:51.140Z,21.10
2018-12-26T06:18:34.635Z,17.67
2018-12-26T06:21:18.578Z,19.93
2018-12-26T06:24:01.562Z,17.13
2018-12-26T06:26:44.924Z,20.13
2018-12-26T06:29:27.797Z,18.93
2018-12-26T06:32:10.320Z,14.97
2018-12-26T06:34:52.841Z,22.60
2018-12-26T06:37:35.310Z,22.03
2018-12-26T06:43:19.475Z,85.47
2018-12-26T06:46:02.639Z,45.67
2018-12-26T06:48:45.705Z,22.07
2018-12-26T06:51:29.379Z,21.57
2018-12-26T06:54:12.290Z,17.47
2018-12-26T06:56:55.244Z,19.40
2018-12-26T06:59:38.541Z,20.47
2018-12-26T07:02:20.900Z,19.67
2018-12-26T07:08:25.719Z,16.97
2018-12-26T07:11:08.486Z,18.10
2018-12-26T07:13:50.950Z,17.70
2018-12-26T07:16:33.698Z,18.33
2018-12-26T07:19:16.160Z,18.93
2018-12-26T07:21:58.969Z,17.53
2018-12-26T07:24:41.429Z,19.30
2018-12-26T07:27:24.121Z,20.63
2018-12-26T07:30:07.715Z,20.23
2018-12-26T07:32:52.998Z,17.70
2018-12-26T07:35:35.862Z,17.73
2018-12-26T07:38:19.024Z,18.20
2018-12-26T07:41:01.524Z,17.63
2018-12-26T07:43:44.425Z,18.60
2018-12-26T07:46:27.125Z,16.50
2018-12-26T07:49:09.404Z,17.07
2018-12-26T07:51:52.138Z,16.73
2018-12-26T07:54:34.665Z,19.17
2018-12-26T07:57:17.231Z,16.57
2018-12-26T08:00:00.559Z,17.73
2018-12-26T08:02:43.913Z,16.57
2018-12-26T08:05:26.215Z,16.80
2018-12-26T08:08:09.217Z,16.17
2018-12-26T08:10:51.743Z,17.57
2018-12-26T08:13:35.052Z,16.37
2018-12-26T08:16:18.527Z,18.20
2018-12-26T08:19:01.957Z,16.77
2018-12-26T08:21:45.094Z,15.47
2018-12-26T08:24:28.057Z,14.93
2018-12-26T08:27:11.444Z,15.53
2018-12-26T08:29:55.577Z,15.87
2018-12-26T08:32:41.617Z,14.17
2018-12-26T08:35:24.865Z,15.97
2018-12-26T08:38:07.972Z,18.07
2018-12-26T08:40:52.569Z,21.30
2018-12-26T08:43:35.995Z,19.97
2018-12-26T08:46:18.912Z,19.53
2018-12-26T08:49:01.591Z,17.77
2018-12-26T08:51:44.166Z,15.20
2018-12-26T08:54:26.882Z,15.30
2018-12-26T08:57:09.936Z,15.43
2018-12-26T08:59:52.435Z,13.27
2018-12-26T09:02:33.580Z,15.53
2018-12-26T09:05:23.445Z,16.00
2018-12-26T09:08:06.616Z,14.30
2018-12-26T09:10:49.236Z,15.77
2018-12-26T09:13:31.896Z,13.27
2018-12-26T09:16:14.363Z,13.87
2018-12-26T09:18:56.955Z,12.93
2018-12-26T09:21:39.471Z,14.17
2018-12-26T09:24:22.651Z,14.23
2018-12-26T09:27:05.182Z,15.00
2018-12-26T09:29:48.004Z,14.37
2018-12-26T09:32:30.599Z,14.83
2018-12-26T09:35:13.293Z,15.27
2018-12-26T09:37:55.995Z,14.80
2018-12-26T09:40:38.429Z,14.50
2018-12-26T09:43:20.892Z,14.03
2018-12-26T09:46:03.823Z,14.10
2018-12-26T09:48:46.272Z,16.97
2018-12-26T09:51:28.628Z,16.47
2018-12-26T09:54:11.738Z,12.70
2018-12-26T09:56:55.079Z,12.30
2018-12-26T09:59:37.551Z,12.17
2018-12-26T10:02:20.048Z,13.13
2018-12-26T10:05:02.699Z,12.30
2018-12-26T10:07:45.618Z,11.60
2018-12-26T10:10:28.138Z,12.37
2018-12-26T10:13:10.965Z,12.87
2018-12-26T10:15:53.441Z,13.87
2018-12-26T10:18:36.565Z,12.57
2018-12-26T10:21:19.314Z,18.87
2018-12-26T10:24:02.599Z,18.00
2018-12-26T10:26:45.631Z,12.77
2018-12-26T10:29:28.177Z,12.57
2018-12-26T10:32:10.632Z,14.33
2018-12-26T10:34:52.913Z,13.93
2018-12-26T10:37:36.001Z,12.53
2018-12-26T10:40:19.227Z,12.73
2018-12-26T10:43:01.853Z,14.17
2018-12-26T10:45:44.465Z,13.87
2018-12-26T10:48:26.945Z,14.70
2018-12-26T10:51:09.505Z,13.57
2018-12-26T10:53:51.858Z,14.27
2018-12-26T10:56:34.603Z,13.67
2018-12-26T10:59:17.280Z,12.90
2018-12-26T11:02:00.399Z,18.55
2018-12-26T11:04:43.452Z,15.50
2018-12-26T11:07:26.826Z,14.70
2018-12-26T11:10:09.473Z,12.97
2018-12-26T11:12:52.306Z,13.83
2018-12-26T11:15:34.781Z,13.07
2018-12-26T11:18:17.175Z,12.63
2018-12-26T11:20:59.890Z,14.20
2018-12-26T11:23:42.660Z,13.90
2018-12-26T11:26:25.312Z,13.60
2018-12-26T11:29:08.390Z,14.13
2018-12-26T11:31:50.775Z,14.37
2018-12-26T11:34:33.024Z,13.77
2018-12-26T11:37:15.397Z,14.80
2018-12-26T11:39:57.951Z,14.40
2018-12-26T11:42:40.451Z,14.77
2018-12-26T11:45:22.736Z,12.97
2018-12-26T11:48:05.115Z,15.07
2018-12-26T11:50:46.554Z,14.00
2018-12-26T11:53:36.416Z,13.77
2018-12-26T11:56:19.138Z,15.23
2018-12-26T11:59:02.294Z,14.50
2018-12-26T12:01:44.725Z,13.17
2018-12-26T12:04:27.917Z,14.10
2018-12-26T12:07:11.083Z,14.43
2018-12-26T12:09:53.994Z,14.83
2018-12-26T12:12:36.385Z,13.70
2018-12-26T12:15:19.340Z,13.57
2018-12-26T12:18:01.712Z,13.30
2018-12-26T12:20:44.288Z,13.73
2018-12-26T12:23:26.727Z,12.70
2018-12-26T12:26:09.176Z,13.67
2018-12-26T12:28:51.796Z,14.50
2018-12-26T12:31:34.393Z,14.67
2018-12-26T12:34:16.647Z,13.23
2018-12-26T12:36:59.209Z,13.70
2018-12-26T12:39:41.890Z,13.40
2018-12-26T12:42:24.337Z,13.57
2018-12-26T12:45:08.415Z,13.57
2018-12-26T12:47:50.940Z,13.57
2018-12-26T12:50:33.936Z,13.63
2018-12-26T12:53:16.535Z,13.87
2018-12-26T12:55:59.361Z,12.67
2018-12-26T12:58:42.468Z,14.23
2018-12-26T13:01:25.209Z,13.30
2018-12-26T13:04:07.817Z,13.10
2018-12-26T13:06:50.716Z,13.50
2018-12-26T13:09:33.145Z,12.93
2018-12-26T13:12:16.284Z,14.03
2018-12-26T13:14:59.032Z,20.03
2018-12-26T13:17:41.421Z,13.10
2018-12-26T13:20:24.164Z,12.23
2018-12-26T13:23:06.734Z,15.90
2018-12-26T13:25:49.162Z,18.17
2018-12-26T13:28:31.836Z,12.50
2018-12-26T13:31:15.021Z,13.03
2018-12-26T13:33:57.768Z,12.53
2018-12-26T13:36:40.507Z,12.63
2018-12-26T13:39:23.319Z,12.50
2018-12-26T13:42:07.147Z,15.10
2018-12-26T13:44:49.845Z,15.77
2018-12-26T13:47:32.447Z,17.00
2018-12-26T13:50:16.098Z,14.37
2018-12-26T13:52:59.618Z,14.17
2018-12-26T13:55:42.691Z,13.20
2018-12-26T13:58:27.259Z,13.70
2018-12-26T14:01:09.952Z,13.10
2018-12-26T14:03:52.642Z,13.40
2018-12-26T14:06:35.148Z,14.07
2018-12-26T14:09:17.980Z,13.07
2018-12-26T14:12:00.475Z,15.03
2018-12-26T14:14:43.218Z,13.23
2018-12-26T14:17:26.066Z,13.03
2018-12-26T14:20:08.965Z,12.63
2018-12-26T14:22:51.551Z,13.00
2018-12-26T14:25:35.073Z,13.90
2018-12-26T14:28:17.513Z,16.10
2018-12-26T14:31:00.006Z,17.60
2018-12-26T14:33:42.822Z,16.83
2018-12-26T14:36:25.851Z,17.40
2018-12-26T14:39:08.663Z,17.53
2018-12-26T14:41:51.209Z,17.80
2018-12-26T14:44:34.353Z,18.67
2018-12-26T14:47:16.709Z,18.87
2018-12-26T14:49:59.561Z,18.80
2018-12-26T14:52:42.605Z,18.53
2018-12-26T14:55:25.391Z,19.00
2018-12-26T14:58:08.076Z,18.70
2018-12-26T15:00:50.491Z,19.87
2018-12-26T15:03:33.266Z,18.40
2018-12-26T15:06:16.159Z,20.73
2018-12-26T15:08:59.457Z,19.07
2018-12-26T15:11:42.583Z,21.13
2018-12-26T15:14:24.862Z,22.37
2018-12-26T15:17:07.881Z,23.03
2018-12-26T15:19:51.229Z,25.10
2018-12-26T15:22:34.479Z,24.77
2018-12-26T15:25:17.580Z,24.03
2018-12-26T15:28:00.416Z,24.30
2018-12-26T15:30:42.880Z,25.67
2018-12-26T15:33:26.324Z,24.23
2018-12-26T15:36:09.126Z,23.70
2018-12-26T15:38:51.485Z,25.33
2018-12-26T15:41:35.396Z,29.47
2018-12-26T15:44:19.572Z,26.60
2018-12-26T15:47:02.347Z,25.00
2018-12-26T15:49:44.762Z,26.27
2018-12-26T15:52:28.943Z,30.90
2018-12-26T15:55:11.526Z,29.27
2018-12-26T15:57:54.359Z,30.20
2018-12-26T16:00:37.458Z,29.57
2018-12-26T16:03:20.664Z,29.93
2018-12-26T16:06:03.169Z,29.10
2018-12-26T16:08:45.546Z,28.90
2018-12-26T16:11:27.998Z,28.87
2018-12-26T16:14:10.929Z,28.33
2018-12-26T16:16:54.464Z,26.93
2018-12-26T16:19:36.906Z,24.70
2018-12-26T16:22:19.814Z,26.50
2018-12-26T16:25:02.187Z,25.90
2018-12-26T16:27:44.569Z,25.43
2018-12-26T16:30:27.814Z,24.70
2018-12-26T16:33:11.475Z,26.87
2018-12-26T16:35:55.010Z,26.77
2018-12-26T16:38:37.353Z,25.13
2018-12-26T16:41:20.003Z,24.50
2018-12-26T16:44:02.739Z,23.13
2018-12-26T16:46:45.195Z,23.73
2018-12-26T16:49:28.530Z,21.77
2018-12-26T16:52:11.161Z,21.43
2018-12-26T16:54:54.099Z,22.03
2018-12-26T16:57:36.899Z,22.30
2018-12-26T17:00:19.658Z,21.47
2018-12-26T17:03:03.189Z,20.73
2018-12-26T17:05:46.233Z,22.63
2018-12-26T17:08:28.967Z,23.70
2018-12-26T17:11:11.799Z,22.53
2018-12-26T17:13:54.445Z,21.47
2018-12-26T17:16:37.878Z,23.47
2018-12-26T17:19:20.754Z,24.20
2018-12-26T17:22:03.800Z,28.77
2018-12-26T17:24:46.711Z,23.23
2018-12-26T17:27:29.781Z,24.27
2018-12-26T17:30:13.213Z,22.70
2018-12-26T17:33:00.593Z,29.77
2018-12-26T17:35:39.721Z,27.73
2018-12-26T17:38:22.194Z,40.03
2018-12-26T17:41:04.661Z,27.67
2018-12-26T17:43:47.243Z,24.83
2018-12-26T17:46:30.367Z,26.40
2018-12-26T17:49:13.394Z,26.53
2018-12-26T17:51:56.098Z,30.60
2018-12-26T17:54:39.129Z,27.93
2018-12-26T17:57:22.336Z,27.20
2018-12-26T18:00:05.087Z,25.93
2018-12-26T18:02:48.678Z,25.90
2018-12-26T18:05:31.653Z,24.40
2018-12-26T18:08:14.099Z,24.70
2018-12-26T18:10:57.665Z,23.03
2018-12-26T18:13:40.494Z,23.97
2018-12-26T18:16:23.514Z,23.83
2018-12-26T18:19:06.647Z,23.40
2018-12-26T18:21:49.289Z,22.13
2018-12-26T18:24:31.845Z,21.03
2018-12-26T18:27:13.140Z,21.20
2018-12-26T18:29:55.585Z,19.47
2018-12-26T18:32:38.213Z,21.73
2018-12-26T18:35:21.030Z,18.87
2018-12-26T18:38:03.550Z,20.67
2018-12-26T18:40:46.196Z,21.90
2018-12-26T18:43:28.770Z,20.33
2018-12-26T18:46:11.082Z,21.67
2018-12-26T18:48:53.460Z,21.50
2018-12-26T18:51:36.038Z,20.27
2018-12-26T18:54:18.909Z,20.00
2018-12-26T18:57:01.852Z,20.03
2018-12-26T18:59:44.170Z,19.97
2018-12-26T19:02:26.761Z,19.40
2018-12-26T19:05:09.053Z,19.73
2018-12-26T19:07:51.752Z,19.23
2018-12-26T19:10:34.666Z,19.57
2018-12-26T19:13:17.296Z,18.80
2018-12-26T19:15:59.732Z,19.23
2018-12-26T19:18:42.518Z,20.30
2018-12-26T19:21:24.970Z,21.67
2018-12-26T19:24:07.752Z,20.43
2018-12-26T19:26:50.255Z,19.90
2018-12-26T19:29:32.999Z,17.97
2018-12-26T19:32:15.271Z,17.70
2018-12-26T19:34:57.861Z,17.67
2018-12-26T19:37:40.700Z,17.00
2018-12-26T19:40:23.972Z,18.97
2018-12-26T19:43:07.047Z,17.00
2018-12-26T19:45:49.763Z,16.87
2018-12-26T19:48:32.480Z,17.30
2018-12-26T19:51:15.167Z,18.67
2018-12-26T19:53:57.748Z,18.93
2018-12-26T19:56:40.075Z,20.67
2018-12-26T19:59:22.464Z,18.70
2018-12-26T20:02:05.268Z,17.43
2018-12-26T20:04:47.792Z,17.27
2018-12-26T20:07:31.143Z,17.47
2018-12-26T20:10:14.097Z,23.00
2018-12-26T20:12:58.431Z,26.27
2018-12-26T20:15:29.038Z,22.73
2018-12-26T20:18:18.805Z,23.80
2018-12-26T20:21:01.789Z,20.27
2018-12-26T20:23:44.996Z,18.80
2018-12-26T20:26:28.127Z,17.20
2018-12-26T20:29:10.387Z,17.10
2018-12-26T20:31:56.810Z,18.03
2018-12-26T20:34:37.220Z,18.77
2018-12-26T20:37:19.947Z,21.07
2018-12-26T20:40:02.634Z,21.07
2018-12-26T20:42:45.104Z,24.43
2018-12-26T20:45:28.358Z,30.80
2018-12-26T20:48:10.906Z,29.67
2018-12-26T20:50:53.604Z,32.83
2018-12-26T20:53:35.968Z,24.43
2018-12-26T20:56:18.335Z,24.67
2018-12-26T20:58:49.843Z,24.93
2018-12-26T21:01:39.794Z,22.90
2018-12-26T21:04:22.323Z,22.33
2018-12-26T21:07:05.504Z,20.00
2018-12-26T21:09:47.911Z,21.53
2018-12-26T21:12:30.738Z,20.63
2018-12-26T21:15:13.435Z,22.10
2018-12-26T21:17:56.392Z,25.10
2018-12-26T21:20:38.994Z,28.47
2018-12-26T21:23:21.363Z,29.93
2018-12-26T21:26:03.664Z,25.13
2018-12-26T21:28:46.178Z,25.53
2018-12-26T21:31:28.746Z,38.93
2018-12-26T21:34:11.491Z,30.27
2018-12-26T21:36:54.657Z,27.33
2018-12-26T21:39:36.979Z,24.77
2018-12-26T21:42:19.698Z,25.40
2018-12-26T21:45:02.686Z,29.80
2018-12-26T21:47:46.312Z,29.70
2018-12-26T21:50:28.670Z,28.53
2018-12-26T21:53:12.306Z,30.43
2018-12-26T21:55:57.859Z,33.53
2018-12-26T21:58:42.346Z,30.57
2018-12-26T22:01:25.169Z,22.27
2018-12-26T22:04:08.384Z,22.80
2018-12-26T22:06:50.831Z,26.10
2018-12-26T22:09:34.041Z,28.37
2018-12-26T22:12:16.371Z,25.00
2018-12-26T22:14:59.288Z,19.83
2018-12-26T22:17:42.287Z,18.70
2018-12-26T22:20:25.032Z,21.73
2018-12-26T22:23:08.402Z,73.20
2018-12-26T22:25:51.536Z,39.50
2018-12-26T22:28:34.073Z,41.33
2018-12-26T22:31:16.823Z,43.70
2018-12-26T22:33:59.676Z,20.60
2018-12-26T22:36:42.151Z,18.83
2018-12-26T22:39:24.621Z,20.60
2018-12-26T22:42:07.307Z,19.60
2018-12-26T22:44:50.451Z,19.03
2018-12-26T22:47:33.663Z,19.30
2018-12-26T22:50:16.257Z,19.10
2018-12-26T22:52:59.352Z,20.13
2018-12-26T22:55:42.618Z,20.13
2018-12-26T22:58:25.828Z,19.70
2018-12-26T23:01:08.258Z,19.07
2018-12-26T23:03:51.379Z,19.77
2018-12-26T23:06:34.131Z,20.03
2018-12-26T23:09:17.750Z,20.20
2018-12-26T23:12:01.215Z,20.63
2018-12-26T23:14:44.707Z,20.47
2018-12-26T23:17:27.433Z,20.10
2018-12-26T23:20:09.922Z,20.70
2018-12-26T23:22:53.157Z,20.07
2018-12-26T23:25:36.164Z,19.27
2018-12-26T23:28:20.235Z,17.03
2018-12-26T23:31:02.839Z,17.33
2018-12-26T23:33:46.200Z,18.37
2018-12-26T23:36:29.749Z,18.63
2018-12-26T23:39:13.194Z,17.23
2018-12-26T23:41:55.993Z,18.90
2018-12-26T23:44:39.329Z,19.33
2018-12-26T23:47:22.389Z,19.00
2018-12-26T23:52:48.079Z,17.17
2018-12-26T23:55:31.172Z,18.37
2018-12-26T23:58:13.609Z,18.70
